LFRK/CFR METAR and TAF weather

Enter ICAO airport designator
Station Type Date Time Source
LFRK METAR 2024/04/18 08:00 UTC NOAA

LFRK 180800Z AUTO 01008KT 330V030 9999 FEW021 SCT028 OVC039 09/04 Q1022 TEMPO 4000 SHRA BKN020TCU


Station Type Date Time Source
LFRK Decoded METAR 2024/04/18 08:00 UTC NOAA

Caen, France (LFRK) 49-11N 000-27W 67M
Apr 18, 2024 - 04:00 AM EDT / 2024.04.18 0800 UTC
Wind: from the N (010 degrees) at 9 MPH (8 KT) (direction variable):0
Visibility: greater than 7 mile(s):0
Sky conditions: overcast
Weather: Towering cumulus clouds observed
Temperature: 48 F (9 C)
Dew Point: 39 F (4 C)
Relative Humidity: 70%
Pressure (altimeter): 30.18 in. Hg (1022 hPa)
ob: LFRK 180800Z AUTO 01008KT 330V030 9999 FEW021 SCT028 OVC039 09/04 Q1022 TEMPO 4000 SHRA BKN020TCU
cycle: 8

Station Type Date Time Source
LFRK TAF 2020/06/02 06:21 UTC NOAA